sensor_id;sensor_type;location;lat;lon;timestamp;temperature;humidity
55135;DHT22;41031;44.750;11.308;2022-08-05T00:00:16;26.30;59.70
55135;DHT22;41031;44.750;11.308;2022-08-05T00:02:47;26.30;59.80
55135;DHT22;41031;44.750;11.308;2022-08-05T00:05:21;26.30;59.90
55135;DHT22;41031;44.750;11.308;2022-08-05T00:08:08;26.20;59.90
55135;DHT22;41031;44.750;11.308;2022-08-05T00:10:57;26.20;59.90
55135;DHT22;41031;44.750;11.308;2022-08-05T00:13:30;26.20;60.20
55135;DHT22;41031;44.750;11.308;2022-08-05T00:16:06;26.20;60.30
55135;DHT22;41031;44.750;11.308;2022-08-05T00:18:35;26.20;60.60
55135;DHT22;41031;44.750;11.308;2022-08-05T00:21:04;26.10;60.80
55135;DHT22;41031;44.750;11.308;2022-08-05T00:23:38;26.10;60.80
55135;DHT22;41031;44.750;11.308;2022-08-05T00:26:20;26.10;60.90
55135;DHT22;41031;44.750;11.308;2022-08-05T00:28:48;26.10;60.70
55135;DHT22;41031;44.750;11.308;2022-08-05T00:31:15;26.10;60.80
55135;DHT22;41031;44.750;11.308;2022-08-05T00:34:03;26.00;60.80
55135;DHT22;41031;44.750;11.308;2022-08-05T00:36:51;26.00;60.60
55135;DHT22;41031;44.750;11.308;2022-08-05T00:39:38;25.90;60.80
55135;DHT22;41031;44.750;11.308;2022-08-05T00:42:10;25.80;61.10
55135;DHT22;41031;44.750;11.308;2022-08-05T00:44:57;25.80;61.40
55135;DHT22;41031;44.750;11.308;2022-08-05T00:47:25;25.80;61.30
55135;DHT22;41031;44.750;11.308;2022-08-05T00:50:12;25.70;61.70
55135;DHT22;41031;44.750;11.308;2022-08-05T00:52:40;25.60;61.70
55135;DHT22;41031;44.750;11.308;2022-08-05T00:55:11;25.60;61.60
55135;DHT22;41031;44.750;11.308;2022-08-05T00:57:38;25.60;62.00
55135;DHT22;41031;44.750;11.308;2022-08-05T01:00:29;25.60;62.40
55135;DHT22;41031;44.750;11.308;2022-08-05T01:02:58;25.50;62.50
55135;DHT22;41031;44.750;11.308;2022-08-05T01:05:26;25.50;62.50
55135;DHT22;41031;44.750;11.308;2022-08-05T01:07:54;25.50;62.60
55135;DHT22;41031;44.750;11.308;2022-08-05T01:10:56;25.40;62.70
55135;DHT22;41031;44.750;11.308;2022-08-05T01:13:44;25.40;62.90
55135;DHT22;41031;44.750;11.308;2022-08-05T01:31:27;25.20;63.20
55135;DHT22;41031;44.750;11.308;2022-08-05T01:36:52;25.20;63.20
55135;DHT22;41031;44.750;11.308;2022-08-05T01:39:20;25.10;63.30
55135;DHT22;41031;44.750;11.308;2022-08-05T01:42:12;25.10;63.40
55135;DHT22;41031;44.750;11.308;2022-08-05T01:44:41;25.10;63.40
55135;DHT22;41031;44.750;11.308;2022-08-05T01:47:12;25.10;63.40
55135;DHT22;41031;44.750;11.308;2022-08-05T01:49:41;25.10;63.60
55135;DHT22;41031;44.750;11.308;2022-08-05T01:52:30;25.10;63.60
55135;DHT22;41031;44.750;11.308;2022-08-05T01:55:08;25.10;63.70
55135;DHT22;41031;44.750;11.308;2022-08-05T01:57:39;25.00;63.80
55135;DHT22;41031;44.750;11.308;2022-08-05T02:00:28;25.00;64.00
55135;DHT22;41031;44.750;11.308;2022-08-05T02:03:22;25.00;64.00
55135;DHT22;41031;44.750;11.308;2022-08-05T02:05:59;24.90;64.10
55135;DHT22;41031;44.750;11.308;2022-08-05T02:08:48;24.80;64.40
55135;DHT22;41031;44.750;11.308;2022-08-05T02:11:26;24.80;64.80
55135;DHT22;41031;44.750;11.308;2022-08-05T02:14:01;24.80;65.00
55135;DHT22;41031;44.750;11.308;2022-08-05T02:16:46;24.70;65.00
55135;DHT22;41031;44.750;11.308;2022-08-05T02:19:37;24.70;65.20
55135;DHT22;41031;44.750;11.308;2022-08-05T02:22:29;24.60;65.30
55135;DHT22;41031;44.750;11.308;2022-08-05T02:25:06;24.60;65.30
55135;DHT22;41031;44.750;11.308;2022-08-05T02:27:39;24.60;65.30
55135;DHT22;41031;44.750;11.308;2022-08-05T02:30:30;24.60;65.40
55135;DHT22;41031;44.750;11.308;2022-08-05T02:33:01;24.50;65.80
55135;DHT22;41031;44.750;11.308;2022-08-05T02:35:33;24.50;66.20
55135;DHT22;41031;44.750;11.308;2022-08-05T02:38:11;24.50;66.50
55135;DHT22;41031;44.750;11.308;2022-08-05T02:40:45;24.50;66.40
55135;DHT22;41031;44.750;11.308;2022-08-05T02:43:14;24.40;66.50
55135;DHT22;41031;44.750;11.308;2022-08-05T02:45:42;24.40;66.70
55135;DHT22;41031;44.750;11.308;2022-08-05T02:48:20;24.40;66.90
55135;DHT22;41031;44.750;11.308;2022-08-05T02:51:01;24.40;66.80
55135;DHT22;41031;44.750;11.308;2022-08-05T02:53:31;24.30;66.80
55135;DHT22;41031;44.750;11.308;2022-08-05T02:56:05;24.30;67.00
55135;DHT22;41031;44.750;11.308;2022-08-05T02:58:36;24.20;67.10
55135;DHT22;41031;44.750;11.308;2022-08-05T03:01:13;24.30;67.30
55135;DHT22;41031;44.750;11.308;2022-08-05T03:03:49;24.20;67.00
55135;DHT22;41031;44.750;11.308;2022-08-05T03:06:34;24.20;67.80
55135;DHT22;41031;44.750;11.308;2022-08-05T03:09:22;24.10;67.30
55135;DHT22;41031;44.750;11.308;2022-08-05T03:12:03;24.00;67.70
55135;DHT22;41031;44.750;11.308;2022-08-05T03:14:30;24.00;68.10
55135;DHT22;41031;44.750;11.308;2022-08-05T03:16:58;23.90;68.40
55135;DHT22;41031;44.750;11.308;2022-08-05T03:19:26;23.90;68.60
55135;DHT22;41031;44.750;11.308;2022-08-05T03:22:00;23.90;68.80
55135;DHT22;41031;44.750;11.308;2022-08-05T03:24:30;23.80;69.00
55135;DHT22;41031;44.750;11.308;2022-08-05T03:27:00;23.80;68.80
55135;DHT22;41031;44.750;11.308;2022-08-05T03:29:28;23.80;68.90
55135;DHT22;41031;44.750;11.308;2022-08-05T03:32:16;23.80;70.10
55135;DHT22;41031;44.750;11.308;2022-08-05T03:34:45;23.80;69.60
55135;DHT22;41031;44.750;11.308;2022-08-05T03:37:17;23.70;70.30
55135;DHT22;41031;44.750;11.308;2022-08-05T03:39:57;23.70;70.20
55135;DHT22;41031;44.750;11.308;2022-08-05T03:42:29;23.70;69.80
55135;DHT22;41031;44.750;11.308;2022-08-05T03:45:07;23.70;69.50
55135;DHT22;41031;44.750;11.308;2022-08-05T03:47:49;23.70;69.50
55135;DHT22;41031;44.750;11.308;2022-08-05T03:50:17;23.70;69.60
55135;DHT22;41031;44.750;11.308;2022-08-05T03:53:12;23.70;69.80
55135;DHT22;41031;44.750;11.308;2022-08-05T03:59:02;23.70;69.60
55135;DHT22;41031;44.750;11.308;2022-08-05T04:01:31;23.60;69.80
55135;DHT22;41031;44.750;11.308;2022-08-05T04:04:02;23.60;70.00
55135;DHT22;41031;44.750;11.308;2022-08-05T04:06:36;23.60;70.00
55135;DHT22;41031;44.750;11.308;2022-08-05T04:09:14;23.60;70.30
55135;DHT22;41031;44.750;11.308;2022-08-05T04:11:53;23.60;70.40
55135;DHT22;41031;44.750;11.308;2022-08-05T04:14:24;23.60;70.30
55135;DHT22;41031;44.750;11.308;2022-08-05T04:16:57;23.60;70.40
55135;DHT22;41031;44.750;11.308;2022-08-05T04:19:25;23.60;70.30
55135;DHT22;41031;44.750;11.308;2022-08-05T04:21:53;23.60;70.30
55135;DHT22;41031;44.750;11.308;2022-08-05T04:24:38;23.60;70.20
55135;DHT22;41031;44.750;11.308;2022-08-05T04:27:18;23.60;69.90
55135;DHT22;41031;44.750;11.308;2022-08-05T04:30:06;23.60;69.80
55135;DHT22;41031;44.750;11.308;2022-08-05T04:32:35;23.60;69.90
55135;DHT22;41031;44.750;11.308;2022-08-05T04:35:03;23.60;70.10
55135;DHT22;41031;44.750;11.308;2022-08-05T04:37:31;23.70;70.60
55135;DHT22;41031;44.750;11.308;2022-08-05T04:40:19;23.70;71.00
55135;DHT22;41031;44.750;11.308;2022-08-05T04:42:46;23.80;71.00
55135;DHT22;41031;44.750;11.308;2022-08-05T04:45:13;23.80;70.80
55135;DHT22;41031;44.750;11.308;2022-08-05T04:48:08;23.90;70.70
55135;DHT22;41031;44.750;11.308;2022-08-05T04:50:53;23.90;70.80
55135;DHT22;41031;44.750;11.308;2022-08-05T04:53:35;23.90;70.50
55135;DHT22;41031;44.750;11.308;2022-08-05T04:56:07;24.00;70.40
55135;DHT22;41031;44.750;11.308;2022-08-05T04:58:55;24.10;70.60
55135;DHT22;41031;44.750;11.308;2022-08-05T05:01:22;24.10;70.50
55135;DHT22;41031;44.750;11.308;2022-08-05T05:04:09;24.20;70.60
55135;DHT22;41031;44.750;11.308;2022-08-05T05:06:37;24.20;70.50
55135;DHT22;41031;44.750;11.308;2022-08-05T05:09:14;24.30;70.50
55135;DHT22;41031;44.750;11.308;2022-08-05T05:11:44;24.30;70.60
55135;DHT22;41031;44.750;11.308;2022-08-05T05:14:21;24.40;70.50
55135;DHT22;41031;44.750;11.308;2022-08-05T05:16:59;24.50;70.30
55135;DHT22;41031;44.750;11.308;2022-08-05T05:19:26;24.60;69.90
55135;DHT22;41031;44.750;11.308;2022-08-05T05:22:05;24.70;69.50
55135;DHT22;41031;44.750;11.308;2022-08-05T05:24:54;24.80;69.20
55135;DHT22;41031;44.750;11.308;2022-08-05T05:27:30;25.00;69.00
55135;DHT22;41031;44.750;11.308;2022-08-05T05:30:15;25.20;68.50
55135;DHT22;41031;44.750;11.308;2022-08-05T05:32:58;25.40;67.80
55135;DHT22;41031;44.750;11.308;2022-08-05T05:35:45;25.60;67.10
55135;DHT22;41031;44.750;11.308;2022-08-05T05:38:14;25.80;66.30
55135;DHT22;41031;44.750;11.308;2022-08-05T05:40:56;26.10;65.40
55135;DHT22;41031;44.750;11.308;2022-08-05T05:43:23;26.30;64.60
55135;DHT22;41031;44.750;11.308;2022-08-05T05:46:10;26.50;63.80
55135;DHT22;41031;44.750;11.308;2022-08-05T05:48:45;26.70;63.00
55135;DHT22;41031;44.750;11.308;2022-08-05T05:51:32;26.90;62.80
55135;DHT22;41031;44.750;11.308;2022-08-05T05:54:16;27.00;62.10
55135;DHT22;41031;44.750;11.308;2022-08-05T05:56:45;27.20;61.40
55135;DHT22;41031;44.750;11.308;2022-08-05T05:59:13;27.30;60.50
55135;DHT22;41031;44.750;11.308;2022-08-05T06:01:41;27.40;59.90
55135;DHT22;41031;44.750;11.308;2022-08-05T06:04:23;27.60;59.80
55135;DHT22;41031;44.750;11.308;2022-08-05T06:06:51;27.70;59.20
55135;DHT22;41031;44.750;11.308;2022-08-05T06:09:18;27.80;58.50
55135;DHT22;41031;44.750;11.308;2022-08-05T06:12:05;27.90;57.40
55135;DHT22;41031;44.750;11.308;2022-08-05T06:14:35;28.10;56.90
55135;DHT22;41031;44.750;11.308;2022-08-05T06:17:06;28.20;56.10
55135;DHT22;41031;44.750;11.308;2022-08-05T06:19:50;28.40;55.70
55135;DHT22;41031;44.750;11.308;2022-08-05T06:22:30;28.50;55.50
55135;DHT22;41031;44.750;11.308;2022-08-05T06:25:00;28.60;54.70
55135;DHT22;41031;44.750;11.308;2022-08-05T06:27:48;28.80;54.50
55135;DHT22;41031;44.750;11.308;2022-08-05T06:30:35;28.90;54.90
55135;DHT22;41031;44.750;11.308;2022-08-05T06:33:02;29.10;54.50
55135;DHT22;41031;44.750;11.308;2022-08-05T06:35:29;29.10;54.20
55135;DHT22;41031;44.750;11.308;2022-08-05T06:38:16;29.30;54.00
55135;DHT22;41031;44.750;11.308;2022-08-05T06:41:06;29.50;53.60
55135;DHT22;41031;44.750;11.308;2022-08-05T06:43:37;29.60;53.30
55135;DHT22;41031;44.750;11.308;2022-08-05T06:46:25;29.80;53.40
55135;DHT22;41031;44.750;11.308;2022-08-05T06:48:57;29.90;52.40
55135;DHT22;41031;44.750;11.308;2022-08-05T06:51:27;30.00;52.20
55135;DHT22;41031;44.750;11.308;2022-08-05T06:54:01;30.30;51.90
55135;DHT22;41031;44.750;11.308;2022-08-05T06:56:31;30.40;52.00
55135;DHT22;41031;44.750;11.308;2022-08-05T06:59:05;30.60;51.70
55135;DHT22;41031;44.750;11.308;2022-08-05T07:01:35;30.70;50.70
55135;DHT22;41031;44.750;11.308;2022-08-05T07:04:07;30.90;50.40
55135;DHT22;41031;44.750;11.308;2022-08-05T07:06:34;31.00;50.00
55135;DHT22;41031;44.750;11.308;2022-08-05T07:09:02;31.20;49.10
55135;DHT22;41031;44.750;11.308;2022-08-05T07:11:31;31.30;48.40
55135;DHT22;41031;44.750;11.308;2022-08-05T07:14:05;31.40;47.80
55135;DHT22;41031;44.750;11.308;2022-08-05T07:16:58;31.60;47.70
55135;DHT22;41031;44.750;11.308;2022-08-05T07:19:47;31.70;47.90
55135;DHT22;41031;44.750;11.308;2022-08-05T07:22:34;31.80;47.90
55135;DHT22;41031;44.750;11.308;2022-08-05T07:25:04;31.90;47.30
55135;DHT22;41031;44.750;11.308;2022-08-05T07:27:53;32.00;47.00
55135;DHT22;41031;44.750;11.308;2022-08-05T07:30:25;32.20;46.70
55135;DHT22;41031;44.750;11.308;2022-08-05T07:33:01;32.20;46.80
55135;DHT22;41031;44.750;11.308;2022-08-05T07:35:35;32.40;46.20
55135;DHT22;41031;44.750;11.308;2022-08-05T07:38:22;32.40;45.90
55135;DHT22;41031;44.750;11.308;2022-08-05T07:41:06;32.50;45.80
55135;DHT22;41031;44.750;11.308;2022-08-05T07:43:54;32.60;45.80
55135;DHT22;41031;44.750;11.308;2022-08-05T07:46:26;32.80;46.00
55135;DHT22;41031;44.750;11.308;2022-08-05T07:48:56;32.90;45.70
55135;DHT22;41031;44.750;11.308;2022-08-05T07:51:35;33.00;45.10
55135;DHT22;41031;44.750;11.308;2022-08-05T07:54:21;33.20;44.50
55135;DHT22;41031;44.750;11.308;2022-08-05T07:57:02;33.30;43.80
55135;DHT22;41031;44.750;11.308;2022-08-05T07:59:50;33.40;42.60
55135;DHT22;41031;44.750;11.308;2022-08-05T08:02:26;33.40;42.40
55135;DHT22;41031;44.750;11.308;2022-08-05T08:04:57;33.50;42.40
55135;DHT22;41031;44.750;11.308;2022-08-05T08:07:25;33.40;43.20
55135;DHT22;41031;44.750;11.308;2022-08-05T08:09:54;33.50;43.10
55135;DHT22;41031;44.750;11.308;2022-08-05T08:12:23;33.60;42.20
55135;DHT22;41031;44.750;11.308;2022-08-05T08:15:04;33.70;42.60
55135;DHT22;41031;44.750;11.308;2022-08-05T08:17:41;33.80;43.00
55135;DHT22;41031;44.750;11.308;2022-08-05T08:20:18;33.90;43.00
55135;DHT22;41031;44.750;11.308;2022-08-05T08:23:05;34.20;42.70
55135;DHT22;41031;44.750;11.308;2022-08-05T08:25:53;34.40;42.00
55135;DHT22;41031;44.750;11.308;2022-08-05T08:28:29;34.60;41.10
55135;DHT22;41031;44.750;11.308;2022-08-05T08:31:16;34.70;40.70
55135;DHT22;41031;44.750;11.308;2022-08-05T08:33:49;34.80;40.30
55135;DHT22;41031;44.750;11.308;2022-08-05T08:36:18;35.00;40.70
55135;DHT22;41031;44.750;11.308;2022-08-05T08:39:06;35.10;40.40
55135;DHT22;41031;44.750;11.308;2022-08-05T08:41:46;35.20;40.50
55135;DHT22;41031;44.750;11.308;2022-08-05T08:44:29;35.30;40.70
55135;DHT22;41031;44.750;11.308;2022-08-05T08:47:17;35.50;40.40
55135;DHT22;41031;44.750;11.308;2022-08-05T08:50:10;35.70;40.00
55135;DHT22;41031;44.750;11.308;2022-08-05T08:53:04;35.80;39.80
55135;DHT22;41031;44.750;11.308;2022-08-05T08:55:39;36.00;39.30
55135;DHT22;41031;44.750;11.308;2022-08-05T08:58:26;36.10;38.90
55135;DHT22;41031;44.750;11.308;2022-08-05T09:01:14;36.20;38.50
55135;DHT22;41031;44.750;11.308;2022-08-05T09:03:52;36.30;38.30
55135;DHT22;41031;44.750;11.308;2022-08-05T09:06:24;36.40;38.10
55135;DHT22;41031;44.750;11.308;2022-08-05T09:08:59;36.60;38.40
55135;DHT22;41031;44.750;11.308;2022-08-05T09:11:27;36.70;38.50
55135;DHT22;41031;44.750;11.308;2022-08-05T09:14:15;36.80;38.40
55135;DHT22;41031;44.750;11.308;2022-08-05T09:17:08;37.00;38.10
55135;DHT22;41031;44.750;11.308;2022-08-05T09:19:55;37.10;37.50
55135;DHT22;41031;44.750;11.308;2022-08-05T09:23:10;37.30;36.90
55135;DHT22;41031;44.750;11.308;2022-08-05T09:25:50;37.40;36.50
55135;DHT22;41031;44.750;11.308;2022-08-05T09:28:29;37.60;35.90
55135;DHT22;41031;44.750;11.308;2022-08-05T09:33:53;37.80;36.00
55135;DHT22;41031;44.750;11.308;2022-08-05T09:36:22;37.90;36.00
55135;DHT22;41031;44.750;11.308;2022-08-05T09:39:02;38.00;35.60
55135;DHT22;41031;44.750;11.308;2022-08-05T09:44:42;38.00;34.20
55135;DHT22;41031;44.750;11.308;2022-08-05T09:47:14;38.10;34.40
55135;DHT22;41031;44.750;11.308;2022-08-05T09:49:50;38.20;33.80
55135;DHT22;41031;44.750;11.308;2022-08-05T09:52:33;38.20;33.60
55135;DHT22;41031;44.750;11.308;2022-08-05T09:57:48;38.40;33.10
55135;DHT22;41031;44.750;11.308;2022-08-05T10:00:21;38.50;33.00
55135;DHT22;41031;44.750;11.308;2022-08-05T10:02:53;38.60;32.90
55135;DHT22;41031;44.750;11.308;2022-08-05T10:05:26;38.70;33.00
55135;DHT22;41031;44.750;11.308;2022-08-05T10:10:47;38.90;32.50
55135;DHT22;41031;44.750;11.308;2022-08-05T10:16:33;38.90;31.80
55135;DHT22;41031;44.750;11.308;2022-08-05T10:19:18;39.00;32.00
55135;DHT22;41031;44.750;11.308;2022-08-05T10:21:58;38.90;32.10
55135;DHT22;41031;44.750;11.308;2022-08-05T10:24:25;38.90;32.20
55135;DHT22;41031;44.750;11.308;2022-08-05T10:26:54;39.10;32.10
55135;DHT22;41031;44.750;11.308;2022-08-05T10:29:27;39.20;31.50
55135;DHT22;41031;44.750;11.308;2022-08-05T10:32:18;39.20;30.50
55135;DHT22;41031;44.750;11.308;2022-08-05T10:35:06;39.10;31.10
55135;DHT22;41031;44.750;11.308;2022-08-05T10:37:35;39.10;31.70
55135;DHT22;41031;44.750;11.308;2022-08-05T10:40:35;39.10;31.40
55135;DHT22;41031;44.750;11.308;2022-08-05T10:46:07;39.00;31.30
55135;DHT22;41031;44.750;11.308;2022-08-05T10:48:37;38.90;31.70
55135;DHT22;41031;44.750;11.308;2022-08-05T10:51:24;39.00;31.90
55135;DHT22;41031;44.750;11.308;2022-08-05T10:53:59;39.10;32.00
55135;DHT22;41031;44.750;11.308;2022-08-05T10:56:49;39.20;31.70
55135;DHT22;41031;44.750;11.308;2022-08-05T10:59:25;39.30;31.10
55135;DHT22;41031;44.750;11.308;2022-08-05T11:02:13;39.40;30.10
55135;DHT22;41031;44.750;11.308;2022-08-05T11:05:05;39.40;30.70
55135;DHT22;41031;44.750;11.308;2022-08-05T11:07:55;39.50;30.80
55135;DHT22;41031;44.750;11.308;2022-08-05T11:10:33;39.70;30.10
55135;DHT22;41031;44.750;11.308;2022-08-05T11:13:04;39.70;31.00
55135;DHT22;41031;44.750;11.308;2022-08-05T11:15:36;39.80;31.20
55135;DHT22;41031;44.750;11.308;2022-08-05T11:18:28;39.80;31.00
55135;DHT22;41031;44.750;11.308;2022-08-05T11:21:00;39.90;30.30
55135;DHT22;41031;44.750;11.308;2022-08-05T11:23:41;39.80;30.70
55135;DHT22;41031;44.750;11.308;2022-08-05T11:26:29;39.70;30.00
55135;DHT22;41031;44.750;11.308;2022-08-05T11:29:01;39.60;30.20
55135;DHT22;41031;44.750;11.308;2022-08-05T11:31:40;39.60;31.80
55135;DHT22;41031;44.750;11.308;2022-08-05T11:34:40;39.70;31.30
55135;DHT22;41031;44.750;11.308;2022-08-05T11:37:40;39.70;31.10
55135;DHT22;41031;44.750;11.308;2022-08-05T11:44:02;40.00;30.50
55135;DHT22;41031;44.750;11.308;2022-08-05T11:46:41;39.90;30.10
55135;DHT22;41031;44.750;11.308;2022-08-05T11:49:28;39.80;31.30
55135;DHT22;41031;44.750;11.308;2022-08-05T11:52:00;39.60;30.90
55135;DHT22;41031;44.750;11.308;2022-08-05T11:54:38;39.70;30.80
55135;DHT22;41031;44.750;11.308;2022-08-05T11:57:07;39.80;30.70
55135;DHT22;41031;44.750;11.308;2022-08-05T11:59:52;39.90;31.10
55135;DHT22;41031;44.750;11.308;2022-08-05T12:02:24;40.00;30.00
55135;DHT22;41031;44.750;11.308;2022-08-05T12:05:00;40.00;30.30
55135;DHT22;41031;44.750;11.308;2022-08-05T12:07:36;39.90;30.10
55135;DHT22;41031;44.750;11.308;2022-08-05T12:10:27;39.70;30.00
55135;DHT22;41031;44.750;11.308;2022-08-05T12:13:13;39.60;30.60
55135;DHT22;41031;44.750;11.308;2022-08-05T12:15:45;39.60;30.40
55135;DHT22;41031;44.750;11.308;2022-08-05T12:18:26;39.60;30.00
55135;DHT22;41031;44.750;11.308;2022-08-05T12:21:29;39.50;30.20
55135;DHT22;41031;44.750;11.308;2022-08-05T12:26:35;39.40;29.90
55135;DHT22;41031;44.750;11.308;2022-08-05T12:29:05;39.30;30.50
55135;DHT22;41031;44.750;11.308;2022-08-05T12:31:36;39.40;30.80
55135;DHT22;41031;44.750;11.308;2022-08-05T12:34:17;39.40;30.00
55135;DHT22;41031;44.750;11.308;2022-08-05T12:36:48;39.40;30.10
55135;DHT22;41031;44.750;11.308;2022-08-05T12:39:16;39.30;30.20
55135;DHT22;41031;44.750;11.308;2022-08-05T12:41:44;39.40;31.10
55135;DHT22;41031;44.750;11.308;2022-08-05T12:44:13;39.30;30.00
55135;DHT22;41031;44.750;11.308;2022-08-05T12:47:00;39.40;30.10
55135;DHT22;41031;44.750;11.308;2022-08-05T12:49:39;39.30;30.60
55135;DHT22;41031;44.750;11.308;2022-08-05T12:52:26;39.30;30.70
55135;DHT22;41031;44.750;11.308;2022-08-05T12:55:01;39.40;30.40
55135;DHT22;41031;44.750;11.308;2022-08-05T12:57:41;39.50;30.00
55135;DHT22;41031;44.750;11.308;2022-08-05T13:00:28;39.50;30.20
55135;DHT22;41031;44.750;11.308;2022-08-05T13:03:17;39.50;30.00
55135;DHT22;41031;44.750;11.308;2022-08-05T13:05:46;39.50;30.20
55135;DHT22;41031;44.750;11.308;2022-08-05T13:08:18;39.40;30.10
55135;DHT22;41031;44.750;11.308;2022-08-05T13:10:46;39.40;30.60
55135;DHT22;41031;44.750;11.308;2022-08-05T13:13:19;39.30;30.70
55135;DHT22;41031;44.750;11.308;2022-08-05T13:16:14;39.30;30.60
55135;DHT22;41031;44.750;11.308;2022-08-05T13:18:55;39.30;30.70
55135;DHT22;41031;44.750;11.308;2022-08-05T13:21:25;39.30;30.80
55135;DHT22;41031;44.750;11.308;2022-08-05T13:24:04;39.20;30.60
55135;DHT22;41031;44.750;11.308;2022-08-05T13:26:31;39.30;30.90
55135;DHT22;41031;44.750;11.308;2022-08-05T13:28:58;39.30;30.60
55135;DHT22;41031;44.750;11.308;2022-08-05T13:31:26;39.30;30.60
55135;DHT22;41031;44.750;11.308;2022-08-05T13:34:14;39.20;30.40
55135;DHT22;41031;44.750;11.308;2022-08-05T13:36:52;39.10;30.40
55135;DHT22;41031;44.750;11.308;2022-08-05T13:39:19;39.00;30.50
55135;DHT22;41031;44.750;11.308;2022-08-05T13:42:07;39.00;30.70
55135;DHT22;41031;44.750;11.308;2022-08-05T13:44:41;38.90;30.30
55135;DHT22;41031;44.750;11.308;2022-08-05T13:47:15;38.90;30.40
55135;DHT22;41031;44.750;11.308;2022-08-05T13:50:01;38.90;30.50
55135;DHT22;41031;44.750;11.308;2022-08-05T13:52:30;39.00;30.90
55135;DHT22;41031;44.750;11.308;2022-08-05T13:55:02;39.00;30.70
55135;DHT22;41031;44.750;11.308;2022-08-05T13:57:35;39.10;30.80
55135;DHT22;41031;44.750;11.308;2022-08-05T14:00:19;39.10;30.20
55135;DHT22;41031;44.750;11.308;2022-08-05T14:02:57;39.10;30.30
55135;DHT22;41031;44.750;11.308;2022-08-05T14:05:27;39.10;29.80
55135;DHT22;41031;44.750;11.308;2022-08-05T14:08:15;39.00;30.50
55135;DHT22;41031;44.750;11.308;2022-08-05T14:10:54;39.00;31.10
55135;DHT22;41031;44.750;11.308;2022-08-05T14:13:41;39.00;30.50
55135;DHT22;41031;44.750;11.308;2022-08-05T14:16:08;39.00;30.80
55135;DHT22;41031;44.750;11.308;2022-08-05T14:18:37;39.00;31.00
55135;DHT22;41031;44.750;11.308;2022-08-05T14:21:05;39.00;31.60
55135;DHT22;41031;44.750;11.308;2022-08-05T14:23:52;39.00;31.00
55135;DHT22;41031;44.750;11.308;2022-08-05T14:26:19;39.00;30.50
55135;DHT22;41031;44.750;11.308;2022-08-05T14:29:06;38.90;30.60
55135;DHT22;41031;44.750;11.308;2022-08-05T14:31:43;38.80;30.50
55135;DHT22;41031;44.750;11.308;2022-08-05T14:34:31;38.80;30.10
55135;DHT22;41031;44.750;11.308;2022-08-05T14:37:03;38.70;30.70
55135;DHT22;41031;44.750;11.308;2022-08-05T14:39:31;38.70;30.80
55135;DHT22;41031;44.750;11.308;2022-08-05T14:42:19;38.60;30.80
55135;DHT22;41031;44.750;11.308;2022-08-05T14:44:48;38.60;31.10
55135;DHT22;41031;44.750;11.308;2022-08-05T14:47:15;38.50;31.30
55135;DHT22;41031;44.750;11.308;2022-08-05T14:50:03;38.50;30.80
55135;DHT22;41031;44.750;11.308;2022-08-05T14:52:44;38.40;31.40
55135;DHT22;41031;44.750;11.308;2022-08-05T14:55:22;38.50;31.50
55135;DHT22;41031;44.750;11.308;2022-08-05T14:57:50;38.40;31.00
55135;DHT22;41031;44.750;11.308;2022-08-05T15:00:22;38.40;30.60
55135;DHT22;41031;44.750;11.308;2022-08-05T15:02:54;38.40;30.80
55135;DHT22;41031;44.750;11.308;2022-08-05T15:05:23;38.30;31.50
55135;DHT22;41031;44.750;11.308;2022-08-05T15:08:13;38.30;31.50
55135;DHT22;41031;44.750;11.308;2022-08-05T15:11:00;38.30;31.80
55135;DHT22;41031;44.750;11.308;2022-08-05T15:13:27;38.30;31.60
55135;DHT22;41031;44.750;11.308;2022-08-05T15:16:12;38.30;31.50
55135;DHT22;41031;44.750;11.308;2022-08-05T15:18:39;38.20;31.70
55135;DHT22;41031;44.750;11.308;2022-08-05T15:21:07;38.20;31.60
55135;DHT22;41031;44.750;11.308;2022-08-05T15:23:34;38.20;32.20
55135;DHT22;41031;44.750;11.308;2022-08-05T15:26:03;38.30;32.40
55135;DHT22;41031;44.750;11.308;2022-08-05T15:28:33;38.20;32.30
55135;DHT22;41031;44.750;11.308;2022-08-05T15:31:00;38.20;32.10
55135;DHT22;41031;44.750;11.308;2022-08-05T15:33:31;38.20;32.30
55135;DHT22;41031;44.750;11.308;2022-08-05T15:36:18;38.20;32.00
55135;DHT22;41031;44.750;11.308;2022-08-05T15:38:52;38.20;32.10
55135;DHT22;41031;44.750;11.308;2022-08-05T15:41:39;38.10;31.90
55135;DHT22;41031;44.750;11.308;2022-08-05T15:44:26;38.10;32.30
55135;DHT22;41031;44.750;11.308;2022-08-05T15:46:56;38.10;32.40
55135;DHT22;41031;44.750;11.308;2022-08-05T15:49:23;38.10;32.80
55135;DHT22;41031;44.750;11.308;2022-08-05T15:52:10;38.10;32.80
55135;DHT22;41031;44.750;11.308;2022-08-05T15:54:42;38.00;32.20
55135;DHT22;41031;44.750;11.308;2022-08-05T15:57:12;37.90;31.50
55135;DHT22;41031;44.750;11.308;2022-08-05T15:59:42;37.90;31.50
55135;DHT22;41031;44.750;11.308;2022-08-05T16:02:09;37.80;32.00
55135;DHT22;41031;44.750;11.308;2022-08-05T16:04:45;37.80;32.60
55135;DHT22;41031;44.750;11.308;2022-08-05T16:07:12;37.70;33.00
55135;DHT22;41031;44.750;11.308;2022-08-05T16:09:40;37.70;32.70
55135;DHT22;41031;44.750;11.308;2022-08-05T16:12:09;37.60;32.30
55135;DHT22;41031;44.750;11.308;2022-08-05T16:14:38;37.60;32.60
55135;DHT22;41031;44.750;11.308;2022-08-05T16:17:05;37.50;32.60
55135;DHT22;41031;44.750;11.308;2022-08-05T16:19:35;37.50;32.70
55135;DHT22;41031;44.750;11.308;2022-08-05T16:22:22;37.40;33.00
55135;DHT22;41031;44.750;11.308;2022-08-05T16:24:53;37.40;33.00
55135;DHT22;41031;44.750;11.308;2022-08-05T16:27:22;37.40;33.40
55135;DHT22;41031;44.750;11.308;2022-08-05T16:30:10;37.30;33.60
55135;DHT22;41031;44.750;11.308;2022-08-05T16:32:51;37.20;34.30
55135;DHT22;41031;44.750;11.308;2022-08-05T16:35:19;37.10;34.80
55135;DHT22;41031;44.750;11.308;2022-08-05T16:37:54;37.10;35.10
55135;DHT22;41031;44.750;11.308;2022-08-05T16:40:41;37.00;35.40
55135;DHT22;41031;44.750;11.308;2022-08-05T16:43:22;37.00;35.50
55135;DHT22;41031;44.750;11.308;2022-08-05T16:45:52;36.90;35.30
55135;DHT22;41031;44.750;11.308;2022-08-05T16:48:38;36.80;35.30
55135;DHT22;41031;44.750;11.308;2022-08-05T16:51:06;36.80;35.60
55135;DHT22;41031;44.750;11.308;2022-08-05T16:53:37;36.70;35.70
55135;DHT22;41031;44.750;11.308;2022-08-05T16:56:25;36.60;35.40
55135;DHT22;41031;44.750;11.308;2022-08-05T16:58:54;36.60;35.60
55135;DHT22;41031;44.750;11.308;2022-08-05T17:01:21;36.60;35.60